LFJL/ETZ METAR and TAF weather

Enter ICAO airport designator
Station Type Date Time Source
LFJL METAR 2021/05/11 23:00 UTC NOAA

LFJL 112300Z AUTO 25011KT CAVOK 11/08 Q1013 TEMPO BKN008 SCT020TCU


Station Type Date Time Source
LFJL Decoded METAR 2021/05/11 23:00 UTC NOAA

Metz-Nancy-Lorraine, France (LFJL) 48-59N 006-15E
May 11, 2021 - 07:00 PM EDT / 2021.05.11 2300 UTC
Wind: from the WSW (250 degrees) at 13 MPH (11 KT):0
Visibility: greater than 7 mile(s):0
Weather: Towering cumulus clouds observed
Temperature: 51 F (11 C)
Dew Point: 46 F (8 C)
Relative Humidity: 81%
Pressure (altimeter): 29.91 in. Hg (1013 hPa)
ob: LFJL 112300Z AUTO 25011KT CAVOK 11/08 Q1013 TEMPO BKN008 SCT020TCU
cycle: 23

Station Type Date Time Source
LFJL TAF 2021/05/11 18:21 UTC NOAA

TAF TAF LFJL 111700Z 1118/1218 24006KT 9999 SCT025 BKN060
TEMPO 1118/1124 -SHRA BKN008 SCT020TCU PROB40
TEMPO 1118/1121 3000 SHRA SCT020CB
TEMPO 1200/1208 BKN010
BECMG 1208/1210 FEW025TCU
TEMPO 1210/1218 -SHRA FEW030CB PROB30
TEMPO 1211/1217 4000 SHRA SCT025CB

Example: see airport list